Atkins, Iowa
Current Conditions -  °F | °C
As of 2:52 PM on Friday 28 Nov 2014 (Local Time) from KCID Reporting Station
Clear Clear  
Wind Chill: -5°   Ceiling: Unl
Heat Index: -1°   Visibility: 8mi
Dew Point: -4°   Wind: 8mph
Humidity: 82%   Direction: 110°ESE
Pressure: 29.87"   Gusts: NA
Location:  42°N, 91.86°W
Report Text: KCID 282052Z 11007KT 8SM CLR M01/M04 A2987 RMK AO2 SLP129 T10111039 56020
Loading
Personal Weather Stations






























Interactive Weather Map New forecast layout! Learn more

10-Day Weather Forecast

Advertisements
Track Severe Weather on mobile